createdAt,value
2018-08-04T00:00:13.335Z,95081.10
2018-08-04T00:02:42.102Z,95082.16
2018-08-04T00:05:11.269Z,95077.89
2018-08-04T00:07:40.372Z,95075.44
2018-08-04T00:10:15.767Z,95068.76
2018-08-04T00:12:45.539Z,95065.30
2018-08-04T00:15:14.354Z,95066.41
2018-08-04T00:17:43.286Z,95062.67
2018-08-04T00:20:12.097Z,95057.55
2018-08-04T00:22:40.938Z,95065.02
2018-08-04T00:25:09.876Z,95057.70
2018-08-04T00:27:38.777Z,95053.97
2018-08-04T00:30:11.362Z,95054.77
2018-08-04T00:32:40.358Z,95050.17
2018-08-04T00:35:09.737Z,95058.13
2018-08-04T00:37:38.737Z,95057.30
2018-08-04T00:40:09.815Z,95059.14
2018-08-04T00:42:38.594Z,95059.92
2018-08-04T00:45:07.467Z,95066.86
2018-08-04T00:47:36.202Z,95060.73
2018-08-04T00:50:05.935Z,95057.23
2018-08-04T00:52:34.812Z,95061.98
2018-08-04T00:55:03.579Z,95061.63
2018-08-04T00:57:32.357Z,95058.12
2018-08-04T01:00:01.111Z,95059.09
2018-08-04T01:02:30.002Z,95061.92
2018-08-04T01:04:58.738Z,95063.50
2018-08-04T01:07:27.471Z,95068.23
2018-08-04T01:09:59.796Z,95061.86
2018-08-04T01:12:28.790Z,95065.33
2018-08-04T01:14:57.541Z,95062.91
2018-08-04T01:17:26.333Z,95064.00
2018-08-04T01:19:55.142Z,95068.23
2018-08-04T01:22:23.966Z,95063.69
2018-08-04T01:24:52.886Z,95064.17
2018-08-04T01:27:21.786Z,95060.95
2018-08-04T01:29:50.570Z,95060.09
2018-08-04T01:32:19.321Z,95055.28
2018-08-04T01:34:48.297Z,95059.52
2018-08-04T01:37:17.002Z,95058.44
2018-08-04T01:39:45.845Z,95058.20
2018-08-04T01:42:14.658Z,95062.19
2018-08-04T01:44:43.378Z,95063.91
2018-08-04T01:47:12.146Z,95060.39
2018-08-04T01:49:40.877Z,95056.05
2018-08-04T01:52:09.642Z,95055.70
2018-08-04T01:54:38.366Z,95058.08
2018-08-04T01:57:07.135Z,95066.33
2018-08-04T01:59:35.846Z,95061.25
2018-08-04T02:02:04.935Z,95054.88
2018-08-04T02:04:33.705Z,95059.61
2018-08-04T02:07:02.455Z,95061.33
2018-08-04T02:09:31.200Z,95060.05
2018-08-04T02:11:59.946Z,95056.58
2018-08-04T02:14:28.698Z,95063.19
2018-08-04T02:16:57.458Z,95064.72
2018-08-04T02:19:26.271Z,95060.89
2018-08-04T02:21:55.031Z,95067.98
2018-08-04T02:24:23.838Z,95062.87
2018-08-04T02:26:52.663Z,95063.39
2018-08-04T02:29:21.437Z,95062.02
2018-08-04T02:31:50.191Z,95063.31
2018-08-04T02:34:18.966Z,95062.78
2018-08-04T02:36:47.736Z,95068.34
2018-08-04T02:39:16.493Z,95070.40
2018-08-04T02:41:45.251Z,95065.59
2018-08-04T02:44:14.043Z,95067.36
2018-08-04T02:46:42.795Z,95077.37
2018-08-04T02:49:11.574Z,95069.41
2018-08-04T02:51:40.343Z,95073.72
2018-08-04T02:54:09.423Z,95070.78
2018-08-04T02:56:38.205Z,95074.25
2018-08-04T02:59:07.008Z,95077.19
2018-08-04T03:01:35.931Z,95075.95
2018-08-04T03:04:04.715Z,95080.27
2018-08-04T03:06:33.475Z,95076.23
2018-08-04T03:09:02.293Z,95078.90
2018-08-04T03:11:31.059Z,95085.02
2018-08-04T03:13:59.971Z,95086.58
2018-08-04T03:16:28.767Z,95087.92
2018-08-04T03:19:00.431Z,95096.98
2018-08-04T03:21:29.692Z,95100.92
2018-08-04T03:23:58.464Z,95100.83
2018-08-04T03:26:27.390Z,95098.45
2018-08-04T03:28:56.384Z,95105.91
2018-08-04T03:31:25.558Z,95100.07
2018-08-04T03:33:54.429Z,95104.09
2018-08-04T03:36:23.201Z,95108.00
2018-08-04T03:38:52.055Z,95109.56
2018-08-04T03:41:20.838Z,95115.81
2018-08-04T03:43:49.569Z,95115.73
2018-08-04T03:46:18.673Z,95120.52
2018-08-04T03:48:47.432Z,95120.28
2018-08-04T03:51:16.213Z,95119.04
2018-08-04T03:53:45.010Z,95127.55
2018-08-04T03:56:13.776Z,95126.07
2018-08-04T03:58:42.501Z,95124.75
2018-08-04T04:01:11.252Z,95127.64
2018-08-04T04:03:40.053Z,95119.57
2018-08-04T04:06:08.882Z,95120.77
2018-08-04T04:08:37.626Z,95125.04
2018-08-04T04:11:06.498Z,95129.36
2018-08-04T04:13:35.249Z,95128.63
2018-08-04T04:16:04.038Z,95130.17
2018-08-04T04:18:32.965Z,95128.91
2018-08-04T04:21:01.739Z,95130.86
2018-08-04T04:23:30.466Z,95135.21
2018-08-04T04:25:59.214Z,95138.00
2018-08-04T04:28:27.995Z,95139.18
2018-08-04T04:30:56.775Z,95140.67
2018-08-04T04:33:25.590Z,95150.03
2018-08-04T04:35:54.567Z,95150.10
2018-08-04T04:38:23.401Z,95147.97
2018-08-04T04:40:52.177Z,95151.22
2018-08-04T04:43:20.940Z,95157.64
2018-08-04T04:45:49.700Z,95148.64
2018-08-04T04:48:18.470Z,95152.22
2018-08-04T04:50:47.792Z,95151.71
2018-08-04T04:53:16.552Z,95157.11
2018-08-04T04:55:45.377Z,95158.58
2018-08-04T04:58:14.165Z,95162.47
2018-08-04T05:00:43.034Z,95158.00
2018-08-04T05:03:11.902Z,95165.33
2018-08-04T05:05:41.545Z,95167.64
2018-08-04T05:08:10.352Z,95169.47
2018-08-04T05:10:39.870Z,95169.00
2018-08-04T05:13:08.793Z,95167.68
2018-08-04T05:15:37.590Z,95174.81
2018-08-04T05:18:06.756Z,95178.13
2018-08-04T05:20:35.496Z,95176.70
2018-08-04T05:23:04.414Z,95178.10
2018-08-04T05:25:33.171Z,95169.54
2018-08-04T05:28:02.004Z,95166.38
2018-08-04T05:30:30.795Z,95163.67
2018-08-04T05:32:59.607Z,95164.53
2018-08-04T05:35:28.324Z,95162.77
2018-08-04T05:37:57.117Z,95162.69
2018-08-04T05:40:26.485Z,95160.66
2018-08-04T05:42:55.248Z,95164.04
2018-08-04T05:45:24.083Z,95158.67
2018-08-04T05:47:52.861Z,95152.27
2018-08-04T05:50:21.650Z,95150.71
2018-08-04T05:52:50.412Z,95147.75
2018-08-04T05:55:19.290Z,95150.62
2018-08-04T05:57:48.067Z,95146.67
2018-08-04T06:00:17.012Z,95144.16
2018-08-04T06:02:46.144Z,95149.22
2018-08-04T06:05:14.968Z,95146.33
2018-08-04T06:07:43.687Z,95145.62
2018-08-04T06:10:12.468Z,95141.39
2018-08-04T06:12:41.242Z,95149.16
2018-08-04T06:15:10.041Z,95151.84
2018-08-04T06:17:38.811Z,95145.48
2018-08-04T06:20:07.594Z,95145.72
2018-08-04T06:22:36.372Z,95143.04
2018-08-04T06:25:05.199Z,95139.30
2018-08-04T06:27:36.889Z,95144.15
2018-08-04T06:30:08.942Z,95136.45
2018-08-04T06:32:37.832Z,95135.91
2018-08-04T06:35:06.641Z,95141.23
2018-08-04T06:37:35.831Z,95143.19
2018-08-04T06:40:05.086Z,95137.56
2018-08-04T06:42:33.865Z,95141.31
2018-08-04T06:45:02.742Z,95141.86
2018-08-04T06:47:31.638Z,95145.61
2018-08-04T06:50:00.478Z,95136.51
2018-08-04T06:52:29.338Z,95136.78
2018-08-04T06:54:58.235Z,95135.18
2018-08-04T06:57:27.057Z,95135.42
2018-08-04T06:59:55.841Z,95136.48
2018-08-04T07:02:24.676Z,95142.39
2018-08-04T07:04:53.523Z,95139.17
2018-08-04T07:07:22.358Z,95143.73
2018-08-04T07:09:51.217Z,95140.75
2018-08-04T07:12:20.018Z,95139.69
2018-08-04T07:14:48.775Z,95146.89
2018-08-04T07:17:18.191Z,95139.86
2018-08-04T07:19:46.945Z,95130.80
2018-08-04T07:22:15.706Z,95132.59
2018-08-04T07:24:44.520Z,95134.81
2018-08-04T07:27:13.446Z,95138.48
2018-08-04T07:29:42.200Z,95133.63
2018-08-04T07:32:10.946Z,95128.77
2018-08-04T07:34:39.774Z,95129.28
2018-08-04T07:37:08.734Z,95118.84
2018-08-04T07:39:37.566Z,95123.39
2018-08-04T07:42:06.411Z,95126.27
2018-08-04T07:44:35.198Z,95115.97
2018-08-04T07:47:03.962Z,95119.39
2018-08-04T07:49:32.695Z,95118.05
2018-08-04T07:52:01.511Z,95116.76
2018-08-04T07:54:30.268Z,95115.09
2018-08-04T07:56:59.068Z,95117.11
2018-08-04T07:59:27.920Z,95111.95
2018-08-04T08:01:56.871Z,95111.61
2018-08-04T08:04:25.625Z,95111.89
2018-08-04T08:06:54.388Z,95112.14
2018-08-04T08:09:23.126Z,95114.56
2018-08-04T08:11:51.990Z,95111.80
2018-08-04T08:14:20.875Z,95110.33
2018-08-04T08:16:49.681Z,95112.67
2018-08-04T08:19:18.515Z,95109.09
2018-08-04T08:21:47.583Z,95107.41
2018-08-04T08:24:16.795Z,95109.57
2018-08-04T08:26:45.562Z,95110.45
2018-08-04T08:29:14.532Z,95111.60
2018-08-04T08:31:51.407Z,95104.92
2018-08-04T08:34:21.322Z,95116.22
2018-08-04T08:36:50.063Z,95100.02
2018-08-04T08:39:18.935Z,95092.97
2018-08-04T08:42:03.800Z,95097.67
2018-08-04T08:44:34.685Z,95105.30
2018-08-04T08:47:04.440Z,95094.23
2018-08-04T08:49:33.170Z,95096.05
2018-08-04T08:52:01.921Z,95089.02
2018-08-04T08:54:30.872Z,95088.20
2018-08-04T08:56:59.605Z,95082.17
2018-08-04T08:59:28.388Z,95085.30
2018-08-04T09:01:57.145Z,95072.27
2018-08-04T09:04:25.956Z,95077.05
2018-08-04T09:06:54.759Z,95070.91
2018-08-04T09:09:23.496Z,95074.84
2018-08-04T09:11:52.321Z,95075.55
2018-08-04T09:14:21.264Z,95066.46
2018-08-04T09:16:50.162Z,95074.36
2018-08-04T09:19:19.065Z,95062.74
2018-08-04T09:21:47.817Z,95057.88
2018-08-04T09:24:16.549Z,95072.30
2018-08-04T09:26:45.413Z,95070.09
2018-08-04T09:29:14.169Z,95069.81
2018-08-04T09:31:43.349Z,95064.91
2018-08-04T09:34:12.093Z,95064.64
2018-08-04T09:36:40.891Z,95061.25
2018-08-04T09:39:11.790Z,95062.05
2018-08-04T09:41:41.565Z,95050.58
2018-08-04T09:44:11.101Z,95053.87
2018-08-04T09:46:41.138Z,95054.78
2018-08-04T09:49:09.940Z,95063.25
2018-08-04T09:51:39.118Z,95062.83
2018-08-04T09:54:07.853Z,95049.24
2018-08-04T09:56:36.756Z,95054.42
2018-08-04T09:59:05.938Z,95056.70
2018-08-04T10:01:38.874Z,95052.67
2018-08-04T10:04:08.255Z,95053.52
2018-08-04T10:06:37.032Z,95051.52
2018-08-04T10:09:08.627Z,95048.34
2018-08-04T10:11:37.407Z,95055.91
2018-08-04T10:14:06.394Z,95055.70
2018-08-04T10:16:35.214Z,95054.95
2018-08-04T10:19:03.993Z,95049.98
2018-08-04T10:21:32.790Z,95050.52
2018-08-04T10:24:01.623Z,95041.25
2018-08-04T10:26:30.349Z,95038.81
2018-08-04T10:28:59.117Z,95036.41
2018-08-04T10:31:27.930Z,95043.38
2018-08-04T10:33:56.735Z,95039.37
2018-08-04T10:36:25.507Z,95035.28
2018-08-04T10:38:54.335Z,95039.77
2018-08-04T10:41:23.072Z,95040.59
2018-08-04T10:43:51.851Z,95031.76
2018-08-04T10:46:20.643Z,95032.95
2018-08-04T10:48:49.823Z,95028.25
2018-08-04T10:51:18.667Z,95039.64
2018-08-04T10:53:47.401Z,95037.58
2018-08-04T10:56:16.160Z,95032.23
2018-08-04T10:58:44.958Z,95018.00
2018-08-04T11:01:13.818Z,95027.77
2018-08-04T11:03:42.678Z,95022.55
2018-08-04T11:06:11.637Z,95021.63
2018-08-04T11:08:40.377Z,95014.42
2018-08-04T11:11:09.191Z,95028.66
2018-08-04T11:13:57.278Z,95023.77
2018-08-04T11:16:26.090Z,95016.91
2018-08-04T11:18:54.899Z,95020.73
2018-08-04T11:21:23.651Z,95014.80
2018-08-04T11:23:52.438Z,95007.34
2018-08-04T11:26:21.307Z,95016.41
2018-08-04T11:28:50.329Z,95018.34
2018-08-04T11:31:19.172Z,95014.40
2018-08-04T11:33:47.942Z,95014.91
2018-08-04T11:36:16.744Z,95020.07
2018-08-04T11:38:56.562Z,95025.33
2018-08-04T11:41:25.467Z,95014.75
2018-08-04T11:43:54.217Z,95018.20
2018-08-04T11:46:22.991Z,95010.75
2018-08-04T11:48:51.802Z,95015.45
2018-08-04T11:51:20.549Z,95010.41
2018-08-04T11:53:49.430Z,95013.53
2018-08-04T11:56:18.278Z,95007.48
2018-08-04T11:58:47.068Z,95010.26
2018-08-04T12:01:15.803Z,95008.41
2018-08-04T12:03:44.634Z,95004.88
2018-08-04T12:06:13.462Z,95002.33
2018-08-04T12:08:42.402Z,95007.83
2018-08-04T12:11:11.732Z,95001.20
2018-08-04T12:13:40.587Z,94999.56
2018-08-04T12:16:09.430Z,95012.91
2018-08-04T12:18:38.169Z,95005.98
2018-08-04T12:21:07.091Z,95001.10
2018-08-04T12:23:35.878Z,94999.16
2018-08-04T12:26:04.620Z,94996.05
2018-08-04T12:28:33.413Z,94988.42
2018-08-04T12:31:02.285Z,94983.52
2018-08-04T12:33:31.023Z,94995.10
2018-08-04T12:35:59.802Z,94991.36
2018-08-04T12:38:28.551Z,94990.92
2018-08-04T12:40:57.298Z,94998.45
2018-08-04T12:43:26.094Z,95009.27
2018-08-04T12:45:54.913Z,95002.19
2018-08-04T12:48:26.759Z,94997.86
2018-08-04T12:50:55.490Z,94999.78
2018-08-04T12:53:24.234Z,94996.69
2018-08-04T12:55:53.027Z,94994.81
2018-08-04T12:58:21.823Z,94989.43
2018-08-04T13:00:50.786Z,94993.88
2018-08-04T13:03:19.874Z,95000.21
2018-08-04T13:05:48.615Z,94986.16
2018-08-04T13:08:17.475Z,94988.62
2018-08-04T13:10:46.858Z,94995.95
2018-08-04T13:13:15.616Z,94996.91
2018-08-04T13:15:44.517Z,94997.58
2018-08-04T13:18:13.531Z,94998.08
2018-08-04T13:20:42.299Z,94989.45
2018-08-04T13:23:11.111Z,94993.74
2018-08-04T13:25:40.008Z,94998.71
2018-08-04T13:28:08.842Z,95000.13
2018-08-04T13:30:38.294Z,94994.67
2018-08-04T13:33:07.072Z,94992.98
2018-08-04T13:35:35.818Z,94991.45
2018-08-04T13:38:04.978Z,94996.30
2018-08-04T13:40:34.487Z,95001.46
2018-08-04T13:43:03.290Z,94990.19
2018-08-04T13:45:32.162Z,94991.05
2018-08-04T13:48:01.143Z,94997.17
2018-08-04T13:50:30.974Z,95000.80
2018-08-04T13:52:59.833Z,94997.78
2018-08-04T13:55:29.541Z,94993.68
2018-08-04T13:57:58.285Z,94993.80
2018-08-04T14:00:27.189Z,94994.66
2018-08-04T14:02:55.979Z,94999.89
2018-08-04T14:05:24.795Z,94991.81
2018-08-04T14:07:53.558Z,94999.31
2018-08-04T14:10:22.385Z,94997.70
2018-08-04T14:12:51.243Z,95004.34
2018-08-04T14:15:20.088Z,95009.31
2018-08-04T14:17:48.887Z,95006.52
2018-08-04T14:20:17.649Z,95006.49
2018-08-04T14:22:46.489Z,95002.45
2018-08-04T14:25:15.569Z,95002.46
2018-08-04T14:27:44.340Z,95005.98
2018-08-04T14:30:13.271Z,95003.00
2018-08-04T14:32:42.069Z,94999.52
2018-08-04T14:35:10.852Z,94996.51
2018-08-04T14:37:40.005Z,94998.78
2018-08-04T14:40:08.824Z,94994.55
2018-08-04T14:42:37.619Z,94994.76
2018-08-04T14:45:06.358Z,94987.53
2018-08-04T14:47:35.116Z,94990.44
2018-08-04T14:50:03.948Z,94989.53
2018-08-04T14:52:33.050Z,94987.44
2018-08-04T14:55:01.864Z,94991.70
2018-08-04T14:57:30.828Z,94986.03
2018-08-04T14:59:59.597Z,94979.78
2018-08-04T15:02:28.351Z,94982.98
2018-08-04T15:04:57.276Z,94979.55
2018-08-04T15:07:26.386Z,94986.77
2018-08-04T15:09:55.183Z,94986.64
2018-08-04T15:12:24.040Z,94986.39
2018-08-04T15:14:52.761Z,94988.75
2018-08-04T15:17:21.554Z,94983.41
2018-08-04T15:19:50.671Z,94988.86
2018-08-04T15:22:19.546Z,94997.02
2018-08-04T15:24:48.364Z,94988.44
2018-08-04T15:27:17.161Z,94984.53
2018-08-04T15:29:45.913Z,94983.34
2018-08-04T15:32:14.653Z,94990.28
2018-08-04T15:34:46.425Z,94988.00
2018-08-04T15:37:15.193Z,94990.69
2018-08-04T15:39:44.017Z,94990.83
2018-08-04T15:42:12.743Z,94989.74
2018-08-04T15:44:41.528Z,94995.42
2018-08-04T15:47:10.318Z,95000.91
2018-08-04T15:49:39.090Z,94999.06
2018-08-04T15:52:07.891Z,94997.48
2018-08-04T15:54:36.658Z,94997.29
2018-08-04T15:57:05.421Z,94996.35
2018-08-04T15:59:34.188Z,94996.33
2018-08-04T16:02:02.995Z,95004.64
2018-08-04T16:04:31.838Z,95008.95
2018-08-04T16:07:00.648Z,94999.30
2018-08-04T16:09:29.398Z,94998.35
2018-08-04T16:11:58.225Z,94999.01
2018-08-04T16:14:27.059Z,95002.21
2018-08-04T16:16:55.899Z,94997.41
2018-08-04T16:19:25.066Z,94995.44
2018-08-04T16:21:53.879Z,94992.66
2018-08-04T16:24:22.675Z,94997.23
2018-08-04T16:26:51.631Z,94991.78
2018-08-04T16:29:20.457Z,94992.66
2018-08-04T16:31:49.220Z,94998.34
2018-08-04T16:34:18.110Z,94995.89
2018-08-04T16:36:46.831Z,94996.20
2018-08-04T16:39:15.589Z,94999.27
2018-08-04T16:41:44.478Z,94993.82
2018-08-04T16:44:13.467Z,95003.78
2018-08-04T16:46:42.260Z,95008.87
2018-08-04T16:49:11.075Z,95003.22
2018-08-04T16:51:39.917Z,95015.02
2018-08-04T16:54:08.723Z,95006.68
2018-08-04T16:56:37.616Z,95012.05
2018-08-04T16:59:06.466Z,95006.37
2018-08-04T17:01:35.297Z,95013.67
2018-08-04T17:04:04.779Z,95012.88
2018-08-04T17:06:33.564Z,95014.80
2018-08-04T17:09:02.407Z,95011.83
2018-08-04T17:11:31.220Z,95015.95
2018-08-04T17:13:59.972Z,95018.45
2018-08-04T17:16:28.884Z,95011.58
2018-08-04T17:18:57.857Z,95019.67
2018-08-04T17:21:26.728Z,95019.14
2018-08-04T17:23:56.282Z,95019.75
2018-08-04T17:26:25.087Z,95023.23
2018-08-04T17:28:53.951Z,95015.73
2018-08-04T17:31:23.000Z,95024.66
2018-08-04T17:33:51.725Z,95020.41
2018-08-04T17:36:20.510Z,95026.34
2018-08-04T17:38:49.386Z,95031.20
2018-08-04T17:41:18.232Z,95031.55
2018-08-04T17:43:47.110Z,95030.22
2018-08-04T17:46:15.873Z,95035.38
2018-08-04T17:48:44.686Z,95044.02
2018-08-04T17:51:13.437Z,95045.66
2018-08-04T17:53:42.218Z,95054.02
2018-08-04T17:56:10.981Z,95052.42
2018-08-04T17:58:39.787Z,95053.83
2018-08-04T18:01:08.896Z,95057.84
2018-08-04T18:03:38.069Z,95061.89
2018-08-04T18:06:07.317Z,95063.23
2018-08-04T18:08:36.095Z,95063.02
2018-08-04T18:11:05.017Z,95068.92
2018-08-04T18:13:33.796Z,95059.08
2018-08-04T18:16:02.757Z,95055.33
2018-08-04T18:18:31.549Z,95066.85
2018-08-04T18:21:00.337Z,95072.75
2018-08-04T18:23:29.129Z,95076.24
2018-08-04T18:25:57.910Z,95078.44
2018-08-04T18:28:26.675Z,95084.37
2018-08-04T18:30:55.524Z,95083.31
2018-08-04T18:33:24.860Z,95079.56
2018-08-04T18:36:01.727Z,95085.72
2018-08-04T18:38:30.497Z,95089.78
2018-08-04T18:40:59.761Z,95088.48
2018-08-04T18:43:28.575Z,95097.89
2018-08-04T18:45:57.330Z,95093.61
2018-08-04T18:48:26.198Z,95096.59
2018-08-04T18:50:55.017Z,95095.28
2018-08-04T18:53:23.929Z,95093.41
2018-08-04T18:55:52.757Z,95093.67
2018-08-04T18:58:21.632Z,95102.50
2018-08-04T19:00:50.636Z,95098.78
2018-08-04T19:03:19.947Z,95101.45
2018-08-04T19:05:49.569Z,95100.41
2018-08-04T19:08:18.693Z,95104.68
2018-08-04T19:10:48.977Z,95100.42
2018-08-04T19:13:17.784Z,95103.36
2018-08-04T19:15:46.645Z,95099.62
2018-08-04T19:18:15.558Z,95094.82
2018-08-04T19:20:45.009Z,95102.30
2018-08-04T19:23:13.799Z,95096.95
2018-08-04T19:25:43.360Z,95105.78
2018-08-04T19:28:12.275Z,95099.39
2018-08-04T19:30:41.278Z,95097.23
2018-08-04T19:33:10.030Z,95096.45
2018-08-04T19:35:38.817Z,95094.02
2018-08-04T19:38:07.596Z,95088.95
2018-08-04T19:40:36.334Z,95086.78
2018-08-04T19:43:05.656Z,95091.09
2018-08-04T19:45:34.800Z,95092.41
2018-08-04T19:48:05.262Z,95098.28
2018-08-04T19:50:34.194Z,95092.69
2018-08-04T19:53:02.938Z,95105.48
2018-08-04T19:55:31.689Z,95094.81
2018-08-04T19:58:00.691Z,95094.25
2018-08-04T20:00:29.451Z,95098.80
2018-08-04T20:02:58.231Z,95095.04
2018-08-04T20:05:26.967Z,95093.69
2018-08-04T20:07:55.734Z,95096.06
2018-08-04T20:10:24.471Z,95092.00
2018-08-04T20:12:53.194Z,95087.73
2018-08-04T20:15:22.019Z,95087.72
2018-08-04T20:17:50.887Z,95087.98
2018-08-04T20:20:19.709Z,95088.51
2018-08-04T20:22:48.515Z,95090.63
2018-08-04T20:25:17.358Z,95091.71
2018-08-04T20:27:46.161Z,95090.39
2018-08-04T20:30:14.923Z,95090.36
2018-08-04T20:32:44.125Z,95088.78
2018-08-04T20:35:13.253Z,95089.04
2018-08-04T20:37:42.038Z,95092.80
2018-08-04T20:40:10.841Z,95086.90
2018-08-04T20:42:39.731Z,95095.47
2018-08-04T20:45:08.518Z,95092.80
2018-08-04T20:47:37.286Z,95089.12
2018-08-04T20:50:06.180Z,95099.55
2018-08-04T20:52:34.994Z,95092.33
2018-08-04T20:55:03.883Z,95092.86
2018-08-04T20:57:32.663Z,95095.80
2018-08-04T21:00:01.416Z,95095.45
2018-08-04T21:02:30.213Z,95091.47
2018-08-04T21:04:59.061Z,95095.71
2018-08-04T21:07:27.872Z,95095.14
2018-08-04T21:09:56.669Z,95088.76
2018-08-04T21:12:25.481Z,95099.15
2018-08-04T21:14:54.274Z,95090.61
2018-08-04T21:17:23.060Z,95093.80
2018-08-04T21:19:51.920Z,95099.67
2018-08-04T21:22:20.736Z,95099.66
2018-08-04T21:24:49.589Z,95101.82
2018-08-04T21:27:18.393Z,95097.85
2018-08-04T21:29:47.105Z,95098.40
2018-08-04T21:32:15.897Z,95093.33
2018-08-04T21:34:44.831Z,95100.54
2018-08-04T21:37:13.581Z,95098.16
2018-08-04T21:39:42.435Z,95102.15
2018-08-04T21:42:11.197Z,95105.66
2018-08-04T21:44:39.978Z,95103.48
2018-08-04T21:49:36.446Z,95104.02
2018-08-04T21:52:05.211Z,95099.46
2018-08-04T21:54:33.932Z,95101.86
2018-08-04T21:57:02.722Z,95101.58
2018-08-04T21:59:31.525Z,95104.52
2018-08-04T22:02:00.444Z,95108.53
2018-08-04T22:04:29.351Z,95106.38
2018-08-04T22:08:07.877Z,95105.83
2018-08-04T22:10:36.666Z,95109.00
2018-08-04T22:13:05.746Z,95112.47
2018-08-04T22:15:35.028Z,95116.72
2018-08-04T22:18:03.830Z,95117.27
2018-08-04T22:20:32.820Z,95111.66
2018-08-04T22:23:01.560Z,95121.55
2018-08-04T22:25:31.049Z,95120.45
2018-08-04T22:28:00.246Z,95116.16
2018-08-04T22:30:29.406Z,95118.52
2018-08-04T22:32:58.585Z,95114.50
2018-08-04T22:35:27.390Z,95115.27
2018-08-04T22:37:56.209Z,95116.06
2018-08-04T22:40:24.993Z,95114.95
2018-08-04T22:42:53.790Z,95118.16
2018-08-04T22:45:46.590Z,95121.36
2018-08-04T22:48:15.362Z,95118.12
2018-08-04T22:50:44.126Z,95116.70
2018-08-04T22:53:12.886Z,95111.36
2018-08-04T22:55:42.362Z,95105.95
2018-08-04T22:58:11.618Z,95105.70
2018-08-04T23:00:41.641Z,95108.34
2018-08-04T23:03:11.343Z,95105.91
2018-08-04T23:05:40.227Z,95101.88
2018-08-04T23:08:09.551Z,95103.22
2018-08-04T23:10:39.205Z,95102.95
2018-08-04T23:13:08.868Z,95101.34
2018-08-04T23:15:37.697Z,95101.58
2018-08-04T23:18:06.618Z,95097.00
2018-08-04T23:20:35.434Z,95100.14
2018-08-04T23:23:04.198Z,95090.23
2018-08-04T23:25:32.988Z,95095.31
2018-08-04T23:28:02.077Z,95099.31
2018-08-04T23:30:30.874Z,95094.56
2018-08-04T23:32:59.665Z,95102.03
2018-08-04T23:35:28.782Z,95097.20
2018-08-04T23:37:57.549Z,95095.02
2018-08-04T23:40:26.318Z,95090.46
2018-08-04T23:42:55.200Z,95089.94
2018-08-04T23:45:23.967Z,95083.52
2018-08-04T23:47:52.790Z,95088.55
2018-08-04T23:50:21.578Z,95083.16
2018-08-04T23:52:50.400Z,95084.21
2018-08-04T23:55:19.230Z,95073.31
2018-08-04T23:57:47.990Z,95076.97
